Burnet, TX

9:14 PM CDT on July 07, 2015 (GMT -0500)
Burnet Municipal-Craddock | | Change Station
CLOSE
Current Station
Airport
Location: Burnet,
Elevation: 1286 ft
Nearby Weather Stations

Elev 1286 ft 30.74 °N, 98.24 °W | Updated 21 minutes ago

Clear
Clear
82 °F
Feels Like 86 °F
N
9
Wind Variable Wind from SSE
Gusts 17 mph

Today
High -- | Low -- °F
--% Chance of Precip.
Yesterday
High -- | Low -- °F
Precip. -- in
6:36 AM 8:39 PM
Waning Gibbous, 59% visible
Pressure 29.92 in
Visibility 10.0 miles
Clouds Clear
Heat Index 86 °F
Dew Point 70 °F
Humidity 67%
Rainfall 0.00 in
Snow Depth Not available.
UV 0 out of 12
Pollen 2.30 out of 12
Air Quality Not available.
Flu Activity Not available.
METAR KBMQ 080153Z AUTO 15008G15KT 10SM CLR 28/21 A2997 RMK AO2 SLP131 T02780211

More Conditions Fewer Conditions

Pressure 29.92 in
Visibility 10.0 miles
Clouds Clear
Heat Index 86 °F
Dew Point 70 °F
Humidity 67%
Rainfall 0.00 in
Snow Depth Not available.
UV 0 out of 12
Pollen 2.30 out of 12
Air Quality Not available.
Flu Activity Not available.
METAR KBMQ 080153Z AUTO 15008G15KT 10SM CLR 28/21 A2997 RMK AO2 SLP131 T02780211

More Conditions Fewer Conditions

Nowcast | as of 7:59 PM CDT on July 7, 2015

Through 9 PM CDT...showers from the Rio Grande plains to the Escarpment into The Hill Country will move to the north. Rainfall amounts up to 1/2 inch are expected.

×

10-Day Weather Forecast

×

Almanac

Astronomy

Jul. 07, 2015 Rise Set
Actual Time
Civil Twilight
Nautical Twilight
Astronomical Twilight
Moon
Length of Visible Light
Length of Day
Tomorrow will be .
, % of the Moon is Illuminated

Today's Extremes

State Highs State Lows

Community

WunderPhotos

Upload Photos

1,836,008 photos uploaded!

WunderBlogs® & News

Nearby

Air Quality

  Air Quality AQ Index Pollutant
Not available.

Snow Depth

Station Depth Elevation

Earthquake Activity

City Distance Mag. Time & Date
Minimum magnitude displayed is 2.5.

Coastal Water Temperatures

Place Temperature

Stations

Nearby Weather Stations

Station Location Temp. Windchill Dew Point Humidity Wind Precip. Elev Updated Type